createdAt,value
2019-04-20T00:00:14.915Z,4.90
2019-04-20T00:01:19.985Z,4.80
2019-04-20T00:02:18.893Z,4.60
2019-04-20T00:03:15.872Z,4.90
2019-04-20T00:04:20.501Z,4.90
2019-04-20T00:05:15.044Z,4.70
2019-04-20T00:06:15.297Z,4.80
2019-04-20T00:07:14.645Z,4.90
2019-04-20T00:08:20.123Z,4.60
2019-04-20T00:09:20.677Z,4.80
2019-04-20T00:10:18.526Z,4.70
2019-04-20T00:11:21.879Z,4.60
2019-04-20T00:12:21.087Z,4.80
2019-04-20T00:13:24.594Z,4.70
2019-04-20T00:14:19.286Z,5.00
2019-04-20T00:15:15.540Z,4.90
2019-04-20T00:16:14.788Z,4.80
2019-04-20T00:17:14.257Z,4.50
2019-04-20T00:18:15.151Z,4.60
2019-04-20T00:19:21.744Z,4.60
2019-04-20T00:20:20.773Z,4.80
2019-04-20T00:21:15.687Z,4.60
2019-04-20T00:22:15.637Z,4.80
2019-04-20T00:23:19.884Z,4.60
2019-04-20T00:24:20.196Z,4.60
2019-04-20T00:25:18.629Z,4.70
2019-04-20T00:26:22.125Z,4.80
2019-04-20T00:27:38.416Z,5.30
2019-04-20T00:28:29.990Z,4.80
2019-04-20T00:29:29.426Z,4.80
2019-04-20T00:30:31.444Z,4.80
2019-04-20T00:31:29.689Z,4.60
2019-04-20T00:32:25.348Z,4.90
2019-04-20T00:33:27.373Z,5.00
2019-04-20T00:34:21.314Z,5.00
2019-04-20T00:35:14.694Z,4.80
2019-04-20T00:36:13.872Z,5.10
2019-04-20T00:37:13.499Z,5.00
2019-04-20T00:38:13.961Z,4.80
2019-04-20T00:39:15.085Z,5.00
2019-04-20T00:40:13.353Z,4.80
2019-04-20T00:41:15.952Z,4.70
2019-04-20T00:42:16.167Z,5.10
2019-04-20T00:43:21.268Z,5.00
2019-04-20T00:44:20.707Z,5.10
2019-04-20T00:45:20.446Z,5.00
2019-04-20T00:46:22.163Z,4.90
2019-04-20T00:47:29.502Z,5.00
2019-04-20T00:48:22.637Z,5.30
2019-04-20T00:49:27.941Z,4.90
2019-04-20T00:50:29.889Z,5.40
2019-04-20T00:51:32.465Z,5.00
2019-04-20T00:52:27.558Z,5.00
2019-04-20T00:53:22.937Z,5.20
2019-04-20T00:54:13.629Z,5.30
2019-04-20T00:55:12.867Z,4.80
2019-04-20T00:56:13.976Z,4.80
2019-04-20T00:57:22.315Z,5.10
2019-04-20T00:58:20.177Z,5.00
2019-04-20T00:59:25.470Z,4.90
2019-04-20T01:00:31.553Z,5.10
2019-04-20T01:01:31.033Z,5.30
2019-04-20T01:02:25.793Z,5.00
2019-04-20T01:03:29.210Z,5.00
2019-04-20T01:04:30.722Z,5.00
2019-04-20T01:05:28.226Z,5.10
2019-04-20T01:06:28.921Z,5.30
2019-04-20T01:07:25.004Z,5.30
2019-04-20T01:08:12.949Z,5.20
2019-04-20T01:09:12.201Z,5.00
2019-04-20T01:10:13.181Z,5.00
2019-04-20T01:11:12.352Z,5.30
2019-04-20T01:12:18.196Z,5.20
2019-04-20T01:13:17.021Z,5.40
2019-04-20T01:14:14.230Z,5.40
2019-04-20T01:15:23.037Z,5.60
2019-04-20T01:16:25.301Z,5.30
2019-04-20T01:17:12.501Z,5.70
2019-04-20T01:18:14.013Z,5.30
2019-04-20T01:19:11.824Z,5.20
2019-04-20T01:20:11.755Z,5.80
2019-04-20T01:21:16.459Z,5.30
2019-04-20T01:22:16.324Z,5.30
2019-04-20T01:23:15.775Z,5.40
2019-04-20T01:24:20.134Z,5.40
2019-04-20T01:25:19.511Z,5.70
2019-04-20T01:26:16.391Z,5.30
2019-04-20T01:27:28.344Z,5.20
2019-04-20T01:28:27.786Z,5.60
2019-04-20T01:29:21.544Z,5.40
2019-04-20T01:30:21.012Z,5.60
2019-04-20T01:31:21.951Z,5.40
2019-04-20T01:32:20.890Z,5.50
2019-04-20T01:33:25.774Z,5.10
2019-04-20T01:34:26.521Z,5.60
2019-04-20T01:35:34.510Z,5.80
2019-04-20T01:36:33.416Z,5.80
2019-04-20T01:37:28.456Z,5.70
2019-04-20T01:38:27.927Z,5.40
2019-04-20T01:39:21.830Z,5.50
2019-04-20T01:40:11.684Z,6.00
2019-04-20T01:41:11.657Z,5.70
2019-04-20T01:42:10.962Z,5.90
2019-04-20T01:43:12.073Z,5.90
2019-04-20T01:44:11.174Z,5.50
2019-04-20T01:45:19.395Z,5.50
2019-04-20T01:46:16.575Z,5.60
2019-04-20T01:47:12.122Z,5.90
2019-04-20T01:48:14.174Z,5.90
2019-04-20T01:49:16.781Z,5.90
2019-04-20T01:50:18.254Z,6.10
2019-04-20T01:51:17.505Z,5.90
2019-04-20T01:52:19.192Z,6.30
2019-04-20T01:53:22.748Z,6.00
2019-04-20T01:54:29.867Z,5.80
2019-04-20T01:55:27.805Z,6.00
2019-04-20T01:56:24.367Z,5.90
2019-04-20T01:57:21.408Z,6.10
2019-04-20T01:58:33.731Z,6.10
2019-04-20T01:59:24.012Z,6.00
2019-04-20T02:00:17.152Z,6.30
2019-04-20T02:01:17.771Z,5.80
2019-04-20T02:02:15.263Z,5.90
2019-04-20T02:03:11.373Z,6.00
2019-04-20T02:04:17.178Z,6.10
2019-04-20T02:05:16.599Z,6.10
2019-04-20T02:06:15.076Z,6.00
2019-04-20T02:07:10.687Z,6.10
2019-04-20T02:08:15.638Z,6.10
2019-04-20T02:09:14.925Z,6.20
2019-04-20T02:10:12.188Z,6.60
2019-04-20T02:11:17.577Z,6.40
2019-04-20T02:12:16.569Z,6.10
2019-04-20T02:13:11.120Z,6.00
2019-04-20T02:14:11.976Z,5.80
2019-04-20T02:15:22.134Z,6.80
2019-04-20T02:16:16.888Z,6.20
2019-04-20T02:17:20.241Z,6.10
2019-04-20T02:18:26.146Z,6.10
2019-04-20T02:19:28.562Z,5.90
2019-04-20T02:20:31.716Z,6.30
2019-04-20T02:21:24.747Z,6.20
2019-04-20T02:22:23.161Z,6.10
2019-04-20T02:23:23.791Z,6.10
2019-04-20T02:24:11.000Z,6.50
2019-04-20T02:25:10.020Z,6.00
2019-04-20T02:26:09.251Z,6.30
2019-04-20T02:27:10.260Z,5.90
2019-04-20T02:28:27.681Z,5.90
2019-04-20T02:29:40.658Z,6.00
2019-04-20T02:30:40.377Z,6.10
2019-04-20T02:32:11.870Z,6.00
2019-04-20T02:32:55.927Z,6.40
2019-04-20T02:34:55.501Z,6.20
2019-04-20T02:35:56.679Z,6.20
2019-04-20T02:36:58.282Z,6.30
2019-04-20T02:38:05.671Z,6.50
2019-04-20T02:40:46.747Z,6.70
2019-04-20T02:41:53.458Z,6.40
2019-04-20T02:42:50.958Z,6.50
2019-04-20T02:43:58.091Z,6.60
2019-04-20T02:44:47.626Z,6.30
2019-04-20T02:45:40.542Z,6.40
2019-04-20T02:46:44.766Z,6.30
2019-04-20T02:47:43.243Z,6.50
2019-04-20T02:48:41.614Z,6.20
2019-04-20T02:49:40.491Z,6.40
2019-04-20T02:51:40.931Z,6.90
2019-04-20T02:53:50.864Z,6.60
2019-04-20T02:54:50.388Z,6.60
2019-04-20T02:55:43.552Z,6.90
2019-04-20T02:57:03.252Z,6.50
2019-04-20T02:57:47.759Z,6.50
2019-04-20T02:58:42.253Z,7.00
2019-04-20T03:00:01.043Z,6.60
2019-04-20T03:00:31.046Z,6.90
2019-04-20T03:01:26.765Z,6.40
2019-04-20T03:02:23.800Z,6.80
2019-04-20T03:03:17.258Z,6.30
2019-04-20T03:04:20.312Z,6.70
2019-04-20T03:05:21.554Z,6.80
2019-04-20T03:06:20.802Z,6.40
2019-04-20T03:07:19.657Z,6.80
2019-04-20T03:08:22.139Z,6.60
2019-04-20T03:09:32.553Z,6.70
2019-04-20T03:10:36.409Z,6.50
2019-04-20T03:11:29.377Z,6.60
2019-04-20T03:12:32.881Z,6.80
2019-04-20T03:13:25.441Z,6.80
2019-04-20T03:14:21.561Z,7.10
2019-04-20T03:15:31.436Z,7.00
2019-04-20T03:16:25.436Z,7.00
2019-04-20T03:17:33.801Z,6.90
2019-04-20T03:18:26.169Z,6.40
2019-04-20T03:19:22.309Z,6.80
2019-04-20T03:20:32.297Z,7.00
2019-04-20T03:21:33.396Z,7.30
2019-04-20T03:22:29.138Z,7.20
2019-04-20T03:23:29.764Z,7.30
2019-04-20T03:24:35.809Z,7.00
2019-04-20T03:25:30.117Z,7.10
2019-04-20T03:26:31.256Z,7.50
2019-04-20T03:27:25.387Z,7.30
2019-04-20T03:28:25.934Z,7.50
2019-04-20T03:29:24.119Z,7.40
2019-04-20T03:31:07.510Z,7.00
2019-04-20T03:32:10.298Z,7.20
2019-04-20T03:32:57.311Z,7.50
2019-04-20T03:33:50.980Z,7.20
2019-04-20T03:34:55.597Z,7.30
2019-04-20T03:35:30.139Z,7.10
2019-04-20T03:36:34.967Z,6.90
2019-04-20T03:37:30.633Z,7.00
2019-04-20T03:38:27.261Z,6.90
2019-04-20T03:39:23.295Z,7.40
2019-04-20T03:40:21.595Z,7.70
2019-04-20T03:41:18.503Z,7.30
2019-04-20T03:42:07.564Z,7.60
2019-04-20T03:43:05.827Z,7.40
2019-04-20T03:44:10.359Z,7.50
2019-04-20T03:45:10.830Z,7.50
2019-04-20T03:46:10.623Z,6.90
2019-04-20T03:47:10.337Z,7.30
2019-04-20T03:48:15.981Z,7.20
2019-04-20T03:49:30.057Z,7.10
2019-04-20T03:50:33.606Z,7.40
2019-04-20T03:51:32.015Z,7.50
2019-04-20T03:52:23.443Z,7.90
2019-04-20T03:53:29.317Z,7.40
2019-04-20T03:54:20.199Z,7.60
2019-04-20T03:55:19.877Z,7.60
2019-04-20T03:56:29.751Z,7.20
2019-04-20T03:57:31.103Z,7.70
2019-04-20T03:58:24.248Z,7.70
2019-04-20T03:59:21.214Z,8.00
2019-04-20T04:00:26.289Z,7.80
2019-04-20T04:01:45.934Z,7.50
2019-04-20T04:02:38.862Z,7.70
2019-04-20T04:03:36.601Z,7.80
2019-04-20T04:04:27.173Z,7.80
2019-04-20T04:05:23.797Z,7.50
2019-04-20T04:06:16.192Z,7.70
2019-04-20T04:07:17.631Z,7.80
2019-04-20T04:08:14.689Z,7.70
2019-04-20T04:09:16.429Z,8.20
2019-04-20T04:10:20.743Z,7.60
2019-04-20T04:11:21.831Z,7.50
2019-04-20T04:12:15.250Z,8.00
2019-04-20T04:13:05.147Z,8.00
2019-04-20T04:14:05.004Z,7.50
2019-04-20T04:15:04.477Z,7.80
2019-04-20T04:16:08.774Z,7.70
2019-04-20T04:17:05.929Z,7.90
2019-04-20T04:18:12.047Z,7.80
2019-04-20T04:19:14.452Z,7.90
2019-04-20T04:20:11.184Z,7.20
2019-04-20T04:21:09.847Z,7.70
2019-04-20T04:22:19.261Z,7.20
2019-04-20T04:23:24.593Z,7.90
2019-04-20T04:24:17.130Z,8.40
2019-04-20T04:25:18.334Z,8.00
2019-04-20T04:26:22.273Z,8.00
2019-04-20T04:27:18.658Z,8.00
2019-04-20T04:28:22.310Z,8.30
2019-04-20T04:29:28.763Z,7.70
2019-04-20T04:30:19.202Z,8.00
2019-04-20T04:31:20.465Z,8.10
2019-04-20T04:32:33.318Z,8.00
2019-04-20T04:34:23.839Z,7.90
2019-04-20T04:35:17.040Z,8.30
2019-04-20T04:36:16.557Z,7.90
2019-04-20T04:37:24.248Z,7.70
2019-04-20T04:38:27.473Z,8.60
2019-04-20T04:39:27.471Z,7.90
2019-04-20T04:40:31.024Z,7.80
2019-04-20T04:41:36.735Z,8.00
2019-04-20T04:42:34.262Z,7.90
2019-04-20T04:43:21.146Z,8.40
2019-04-20T04:44:19.278Z,8.20
2019-04-20T04:45:08.109Z,7.80
2019-04-20T04:46:03.902Z,8.10
2019-04-20T04:47:06.456Z,8.20
2019-04-20T04:48:07.618Z,8.20
2019-04-20T04:49:09.570Z,7.90
2019-04-20T04:50:11.094Z,7.90
2019-04-20T04:51:09.016Z,8.50
2019-04-20T04:52:10.237Z,7.80
2019-04-20T04:53:11.213Z,7.70
2019-04-20T04:54:13.935Z,8.10
2019-04-20T04:55:16.213Z,8.10
2019-04-20T04:56:07.172Z,7.60
2019-04-20T04:57:03.359Z,8.10
2019-04-20T04:58:02.663Z,8.60
2019-04-20T04:59:02.633Z,8.10
2019-04-20T05:00:03.664Z,8.50
2019-04-20T05:01:11.752Z,8.60
2019-04-20T05:02:03.462Z,8.30
2019-04-20T05:03:22.121Z,8.70
2019-04-20T05:04:22.991Z,7.90
2019-04-20T05:05:28.040Z,8.60
2019-04-20T05:06:18.730Z,8.50
2019-04-20T05:07:16.049Z,8.60
2019-04-20T05:08:13.354Z,8.80
2019-04-20T05:09:06.932Z,8.70
2019-04-20T05:10:03.450Z,8.80
2019-04-20T05:11:02.672Z,8.90
2019-04-20T05:12:07.206Z,8.60
2019-04-20T05:13:02.946Z,8.60
2019-04-20T05:14:06.678Z,9.20
2019-04-20T05:15:10.083Z,8.70
2019-04-20T05:16:15.837Z,8.80
2019-04-20T05:17:20.751Z,8.60
2019-04-20T05:18:28.894Z,8.50
2019-04-20T05:19:24.710Z,8.30
2019-04-20T05:20:17.399Z,8.60
2019-04-20T05:21:21.943Z,8.40
2019-04-20T05:22:24.560Z,8.20
2019-04-20T05:23:19.375Z,8.10
2019-04-20T05:24:16.908Z,7.40
2019-04-20T05:25:18.458Z,7.40
2019-04-20T05:26:20.185Z,7.80
2019-04-20T05:27:20.783Z,7.70
2019-04-20T05:28:19.147Z,7.50
2019-04-20T05:29:10.500Z,7.90
2019-04-20T05:30:01.541Z,7.30
2019-04-20T05:31:03.594Z,7.70
2019-04-20T05:32:08.100Z,6.80
2019-04-20T05:33:07.798Z,7.20
2019-04-20T05:34:26.299Z,7.00
2019-04-20T05:35:22.591Z,6.70
2019-04-20T05:36:18.542Z,6.90
2019-04-20T05:37:31.296Z,7.00
2019-04-20T05:38:23.090Z,6.80
2019-04-20T05:39:26.945Z,7.10
2019-04-20T05:40:25.003Z,7.00
2019-04-20T05:41:18.815Z,7.00
2019-04-20T05:42:26.263Z,6.60
2019-04-20T05:43:24.602Z,7.00
2019-04-20T05:44:18.831Z,7.10
2019-04-20T05:45:18.176Z,6.40
2019-04-20T05:46:22.361Z,6.70
2019-04-20T05:47:21.759Z,6.60
2019-04-20T05:48:16.899Z,6.70
2019-04-20T05:49:22.032Z,6.20
2019-04-20T05:50:18.558Z,6.50
2019-04-20T05:51:24.017Z,6.50
2019-04-20T05:53:22.107Z,6.00
2019-04-20T05:54:23.378Z,5.90
2019-04-20T05:55:23.684Z,6.20
2019-04-20T05:56:25.678Z,6.20
2019-04-20T05:57:27.828Z,6.40
2019-04-20T05:58:24.614Z,6.30
2019-04-20T05:59:24.201Z,6.00
2019-04-20T06:00:24.700Z,6.10
2019-04-20T06:01:20.403Z,6.00
2019-04-20T06:02:23.162Z,6.30
2019-04-20T06:03:24.646Z,6.10
2019-04-20T06:04:30.077Z,6.30
2019-04-20T06:05:23.949Z,6.00
2019-04-20T06:06:21.819Z,5.50
2019-04-20T06:08:32.967Z,6.00
2019-04-20T06:09:22.652Z,6.50
2019-04-20T06:10:21.445Z,6.40
2019-04-20T06:11:21.147Z,5.90
2019-04-20T06:12:20.990Z,5.90
2019-04-20T06:13:15.020Z,6.20
2019-04-20T06:14:07.780Z,5.80
2019-04-20T06:15:12.741Z,5.80
2019-04-20T06:16:13.493Z,5.90
2019-04-20T06:17:21.116Z,5.70
2019-04-20T06:18:17.718Z,6.00
2019-04-20T06:19:28.682Z,5.70
2019-04-20T06:20:20.269Z,5.40
2019-04-20T06:21:26.508Z,5.60
2019-04-20T06:22:28.417Z,6.00
2019-04-20T06:23:24.494Z,5.60
2019-04-20T06:24:26.735Z,5.60
2019-04-20T06:25:39.665Z,5.60
2019-04-20T06:26:46.609Z,5.50
2019-04-20T06:27:21.495Z,5.80
2019-04-20T06:28:17.314Z,5.50
2019-04-20T06:29:16.996Z,5.50
2019-04-20T06:30:14.078Z,5.80
2019-04-20T06:31:26.587Z,5.90
2019-04-20T06:32:28.866Z,5.40
2019-04-20T06:33:36.771Z,5.60
2019-04-20T06:35:37.124Z,5.70
2019-04-20T06:36:29.231Z,5.70
2019-04-20T06:37:16.059Z,5.80
2019-04-20T06:38:36.542Z,5.50
2019-04-20T06:39:20.283Z,5.70
2019-04-20T06:40:37.140Z,5.90
2019-04-20T06:41:36.027Z,5.80
2019-04-20T06:42:31.823Z,5.70
2019-04-20T06:43:19.164Z,6.30
2019-04-20T06:44:26.633Z,5.60
2019-04-20T06:45:28.154Z,5.80
2019-04-20T06:46:22.735Z,6.20
2019-04-20T06:47:21.162Z,6.00
2019-04-20T06:48:32.022Z,6.20
2019-04-20T06:49:19.655Z,5.60
2019-04-20T06:50:18.692Z,5.70
2019-04-20T06:51:22.313Z,6.30
2019-04-20T06:52:26.012Z,6.00
2019-04-20T06:53:27.036Z,6.10
2019-04-20T06:54:11.429Z,5.80
2019-04-20T06:55:13.846Z,5.80
2019-04-20T06:56:23.724Z,5.70
2019-04-20T06:57:18.348Z,6.10
2019-04-20T06:58:34.690Z,5.60
2019-04-20T06:59:27.671Z,5.70
2019-04-20T07:00:30.868Z,5.50
2019-04-20T07:01:17.111Z,5.60
2019-04-20T07:02:22.215Z,5.40
2019-04-20T07:03:31.613Z,5.30
2019-04-20T07:05:21.201Z,5.40
2019-04-20T07:06:35.612Z,5.70
2019-04-20T07:07:18.440Z,6.00
2019-04-20T07:08:34.641Z,5.80
2019-04-20T07:09:28.858Z,5.70
2019-04-20T07:11:18.687Z,6.00
2019-04-20T07:12:17.036Z,5.50
2019-04-20T07:13:11.530Z,5.80
2019-04-20T07:14:04.076Z,5.30
2019-04-20T07:15:17.394Z,5.50
2019-04-20T07:16:21.378Z,5.40
2019-04-20T07:18:17.163Z,5.60
2019-04-20T07:19:20.096Z,5.40
2019-04-20T07:20:18.480Z,5.20
2019-04-20T07:21:29.711Z,5.10
2019-04-20T07:22:36.084Z,5.40
2019-04-20T07:23:28.180Z,5.10
2019-04-20T07:24:24.939Z,4.80
2019-04-20T07:25:21.390Z,5.40
2019-04-20T07:26:24.208Z,4.80
2019-04-20T07:27:19.607Z,5.20
2019-04-20T07:28:19.713Z,5.50
2019-04-20T07:29:20.989Z,4.80
2019-04-20T07:30:16.230Z,5.40
2019-04-20T07:31:19.018Z,5.40
2019-04-20T07:32:11.949Z,5.30
2019-04-20T07:33:24.661Z,5.30
2019-04-20T07:35:21.692Z,5.20
2019-04-20T07:36:28.726Z,5.50
2019-04-20T07:38:32.937Z,5.20
2019-04-20T07:39:21.596Z,5.00
2019-04-20T07:40:24.574Z,5.10
2019-04-20T07:41:25.951Z,5.10
2019-04-20T07:42:24.228Z,5.00
2019-04-20T07:43:16.986Z,5.10
2019-04-20T07:44:18.333Z,4.60
2019-04-20T07:45:24.163Z,4.70
2019-04-20T07:46:34.788Z,4.60
2019-04-20T07:47:21.825Z,4.70
2019-04-20T07:48:17.899Z,4.60
2019-04-20T07:49:22.461Z,5.00
2019-04-20T07:50:13.006Z,4.90
2019-04-20T07:51:06.879Z,4.90
2019-04-20T07:51:57.630Z,5.00
2019-04-20T07:53:13.039Z,4.90
2019-04-20T07:54:25.784Z,4.60
2019-04-20T07:55:33.370Z,4.50
2019-04-20T07:56:17.779Z,4.70
2019-04-20T07:57:14.921Z,4.90
2019-04-20T07:58:08.340Z,4.70
2019-04-20T07:59:09.590Z,4.50
2019-04-20T08:00:19.905Z,4.10
2019-04-20T08:01:22.531Z,4.50
2019-04-20T08:02:25.028Z,4.30
2019-04-20T08:03:23.652Z,4.40
2019-04-20T08:04:17.487Z,4.50
2019-04-20T08:05:10.640Z,4.50
2019-04-20T08:06:06.807Z,4.70
2019-04-20T08:07:03.369Z,4.30
2019-04-20T08:08:14.885Z,4.40
2019-04-20T08:09:13.354Z,4.30
2019-04-20T08:10:02.890Z,4.50
2019-04-20T08:11:13.816Z,4.20
2019-04-20T08:12:22.493Z,4.20
2019-04-20T08:13:27.549Z,4.50
2019-04-20T08:14:22.785Z,4.00
2019-04-20T08:16:29.653Z,4.20
2019-04-20T08:17:21.468Z,4.20
2019-04-20T08:18:21.325Z,4.20
2019-04-20T08:19:16.408Z,3.80
2019-04-20T08:20:16.169Z,4.40
2019-04-20T08:21:16.502Z,4.00
2019-04-20T08:22:24.026Z,4.00
2019-04-20T08:23:17.579Z,4.20
2019-04-20T08:25:08.295Z,3.90
2019-04-20T08:26:06.652Z,4.00
2019-04-20T08:27:00.316Z,4.10
2019-04-20T08:27:55.379Z,3.90
2019-04-20T08:29:01.601Z,4.20
2019-04-20T08:30:10.976Z,4.00
2019-04-20T08:31:09.397Z,3.60
2019-04-20T08:32:17.917Z,3.80
2019-04-20T08:33:13.154Z,4.20
2019-04-20T08:34:21.402Z,4.60
2019-04-20T08:35:22.216Z,4.20
2019-04-20T08:36:18.162Z,3.80
2019-04-20T08:37:11.721Z,3.90
2019-04-20T08:38:50.367Z,3.80
2019-04-20T08:40:13.248Z,3.70
2019-04-20T08:41:15.259Z,4.00
2019-04-20T08:42:18.639Z,4.40
2019-04-20T08:43:32.674Z,4.20
2019-04-20T08:44:35.316Z,3.90
2019-04-20T08:45:16.752Z,4.00
2019-04-20T08:46:19.468Z,3.80
2019-04-20T08:47:21.650Z,3.80
2019-04-20T08:48:19.005Z,4.00
2019-04-20T08:49:22.483Z,4.00
2019-04-20T08:50:21.342Z,3.90
2019-04-20T08:51:12.139Z,3.80
2019-04-20T08:52:41.391Z,3.90
2019-04-20T08:53:20.471Z,4.10
2019-04-20T08:54:15.460Z,3.80
2019-04-20T08:55:10.555Z,3.80
2019-04-20T08:56:08.292Z,4.10
2019-04-20T08:56:59.600Z,3.90
2019-04-20T08:57:54.563Z,4.20
2019-04-20T08:58:55.084Z,3.80
2019-04-20T09:00:04.998Z,4.10
2019-04-20T09:00:58.805Z,3.80
2019-04-20T09:01:58.991Z,3.70
2019-04-20T09:03:00.890Z,3.80
2019-04-20T09:04:04.649Z,3.90
2019-04-20T09:05:01.359Z,3.50
2019-04-20T09:06:03.531Z,3.70
2019-04-20T09:07:05.478Z,3.90
2019-04-20T09:08:06.951Z,3.80
2019-04-20T09:09:19.416Z,3.90
2019-04-20T09:10:16.664Z,3.80
2019-04-20T09:11:10.189Z,4.00
2019-04-20T09:12:11.875Z,3.80
2019-04-20T09:13:06.066Z,3.80
2019-04-20T09:13:58.462Z,3.80
2019-04-20T09:14:55.166Z,3.90
2019-04-20T09:15:54.053Z,4.10
2019-04-20T09:17:00.277Z,3.90
2019-04-20T09:17:58.187Z,4.10
2019-04-20T09:18:59.843Z,4.00
2019-04-20T09:19:58.688Z,3.90
2019-04-20T09:21:02.444Z,3.90
2019-04-20T09:22:01.300Z,3.70
2019-04-20T09:23:13.489Z,3.70
2019-04-20T09:24:19.737Z,3.70
2019-04-20T09:25:19.243Z,3.70
2019-04-20T09:26:09.115Z,3.60
2019-04-20T09:27:09.912Z,3.80
2019-04-20T09:28:07.482Z,4.00
2019-04-20T09:29:03.121Z,3.90
2019-04-20T09:30:16.048Z,4.10
2019-04-20T09:31:11.905Z,3.80
2019-04-20T09:32:11.386Z,3.90
2019-04-20T09:33:14.338Z,3.90
2019-04-20T09:34:13.104Z,3.50
2019-04-20T09:35:14.321Z,4.00
2019-04-20T09:36:10.326Z,3.80
2019-04-20T09:37:16.793Z,3.50
2019-04-20T09:38:11.822Z,3.90
2019-04-20T09:39:06.136Z,3.80
2019-04-20T09:40:14.261Z,3.50
2019-04-20T09:41:13.762Z,3.80
2019-04-20T09:42:00.822Z,3.50
2019-04-20T09:42:53.307Z,3.60
2019-04-20T09:43:54.114Z,3.90
2019-04-20T09:44:56.234Z,3.60
2019-04-20T09:45:58.766Z,3.60
2019-04-20T09:46:56.735Z,3.60
2019-04-20T09:47:55.312Z,3.70
2019-04-20T09:48:57.940Z,3.60
2019-04-20T09:50:03.528Z,3.70
2019-04-20T09:51:12.763Z,3.50
2019-04-20T09:52:06.845Z,3.50
2019-04-20T09:53:10.034Z,3.40
2019-04-20T09:54:03.951Z,3.70
2019-04-20T09:55:06.934Z,3.70
2019-04-20T09:56:06.241Z,3.60
2019-04-20T09:57:13.226Z,3.50
2019-04-20T09:58:04.926Z,3.60
2019-04-20T09:59:12.184Z,3.90
2019-04-20T10:00:06.570Z,3.70
2019-04-20T10:01:06.766Z,3.60
2019-04-20T10:02:02.184Z,3.70
2019-04-20T10:02:52.802Z,3.60
2019-04-20T10:03:52.820Z,3.70
2019-04-20T10:04:53.500Z,3.80
2019-04-20T10:05:53.740Z,3.80
2019-04-20T10:06:52.684Z,3.90
2019-04-20T10:07:55.931Z,3.70
2019-04-20T10:08:56.274Z,3.70
2019-04-20T10:09:53.857Z,3.90
2019-04-20T10:10:54.195Z,3.90
2019-04-20T10:11:53.220Z,4.00
2019-04-20T10:12:52.503Z,3.80
2019-04-20T10:13:52.490Z,3.90
2019-04-20T10:14:53.221Z,3.90
2019-04-20T10:15:53.446Z,3.60
2019-04-20T10:16:53.708Z,3.90
2019-04-20T10:17:52.387Z,3.80
2019-04-20T10:18:53.713Z,3.70
2019-04-20T10:19:53.416Z,3.70
2019-04-20T10:20:53.778Z,3.90
2019-04-20T10:21:52.867Z,4.10
2019-04-20T10:22:52.269Z,4.00
2019-04-20T10:23:52.571Z,3.80
2019-04-20T10:24:53.570Z,3.80
2019-04-20T10:25:52.166Z,3.90
2019-04-20T10:26:52.475Z,3.50
2019-04-20T10:27:52.131Z,3.60
2019-04-20T10:28:52.098Z,3.50
2019-04-20T10:29:53.474Z,3.40
2019-04-20T10:30:52.634Z,3.80
2019-04-20T10:31:58.299Z,4.10
2019-04-20T10:32:53.961Z,4.10
2019-04-20T10:33:51.976Z,3.90
2019-04-20T10:34:52.706Z,3.60
2019-04-20T10:35:51.935Z,3.60
2019-04-20T10:36:51.883Z,3.70
2019-04-20T10:37:51.896Z,4.10
2019-04-20T10:38:52.688Z,3.80
2019-04-20T10:39:52.365Z,3.40
2019-04-20T10:41:03.463Z,3.70
2019-04-20T10:41:56.320Z,3.60
2019-04-20T10:42:53.045Z,3.60
2019-04-20T10:43:53.087Z,3.60
2019-04-20T10:44:55.155Z,3.60
2019-04-20T10:45:52.911Z,3.40
2019-04-20T10:46:51.625Z,3.50
2019-04-20T10:47:52.764Z,3.20
2019-04-20T10:48:54.174Z,4.00
2019-04-20T10:49:51.550Z,3.50
2019-04-20T10:50:52.717Z,3.20
2019-04-20T10:51:51.669Z,2.70
2019-04-20T10:52:51.965Z,3.20
2019-04-20T10:53:51.776Z,2.60
2019-04-20T10:54:52.282Z,2.60
2019-04-20T10:55:51.581Z,2.80
2019-04-20T10:56:51.817Z,3.60
2019-04-20T10:57:51.484Z,3.70
2019-04-20T10:58:51.679Z,3.70
2019-04-20T10:59:51.911Z,3.70
2019-04-20T11:00:51.908Z,3.80
2019-04-20T11:01:51.821Z,3.70
2019-04-20T11:02:52.402Z,3.50
2019-04-20T11:03:52.263Z,3.00
2019-04-20T11:04:52.548Z,2.40
2019-04-20T11:05:51.147Z,2.80
2019-04-20T11:06:52.333Z,2.50
2019-04-20T11:07:52.553Z,2.80
2019-04-20T11:08:51.075Z,3.00
2019-04-20T11:10:02.478Z,3.60
2019-04-20T11:11:05.911Z,2.50
2019-04-20T11:11:52.335Z,2.80
2019-04-20T11:12:50.974Z,2.60
2019-04-20T11:13:51.125Z,2.80
2019-04-20T11:14:52.229Z,2.60
2019-04-20T11:15:50.901Z,2.70
2019-04-20T11:16:50.919Z,2.60
2019-04-20T11:17:51.405Z,2.70
2019-04-20T11:18:51.388Z,3.10
2019-04-20T11:19:51.579Z,2.80
2019-04-20T11:20:51.075Z,2.50
2019-04-20T11:21:50.763Z,2.50
2019-04-20T11:22:50.739Z,2.60
2019-04-20T11:23:52.021Z,2.50
2019-04-20T11:24:50.654Z,2.90
2019-04-20T11:25:50.626Z,2.90
2019-04-20T11:26:51.997Z,2.70
2019-04-20T11:27:50.575Z,2.60
2019-04-20T11:28:50.571Z,2.60
2019-04-20T11:29:51.845Z,2.70
2019-04-20T11:30:50.506Z,3.30
2019-04-20T11:31:52.860Z,3.30
2019-04-20T11:32:51.810Z,2.50
2019-04-20T11:33:50.444Z,2.40
2019-04-20T11:34:51.269Z,2.60
2019-04-20T11:35:51.489Z,2.60
2019-04-20T11:36:50.901Z,2.60
2019-04-20T11:37:51.263Z,2.80
2019-04-20T11:38:51.155Z,2.70
2019-04-20T11:39:50.812Z,2.60
2019-04-20T11:41:01.625Z,2.60
2019-04-20T11:41:50.217Z,2.80
2019-04-20T11:42:50.212Z,2.70
2019-04-20T11:43:51.447Z,3.00
2019-04-20T11:44:50.823Z,3.00
2019-04-20T11:45:51.109Z,2.90
2019-04-20T11:46:50.334Z,3.10
2019-04-20T11:47:51.459Z,3.40
2019-04-20T11:48:50.065Z,3.20
2019-04-20T11:49:51.262Z,3.40
2019-04-20T11:50:49.989Z,3.10
2019-04-20T11:51:49.966Z,3.50
2019-04-20T11:52:51.476Z,3.20
2019-04-20T11:53:50.185Z,3.60
2019-04-20T11:54:50.515Z,3.20
2019-04-20T11:55:49.894Z,3.00
2019-04-20T11:56:51.131Z,3.40
2019-04-20T11:57:49.787Z,3.70
2019-04-20T11:58:50.855Z,3.70
2019-04-20T11:59:50.815Z,3.90
2019-04-20T12:00:58.620Z,3.70
2019-04-20T12:01:56.625Z,3.80
2019-04-20T12:02:53.842Z,3.50
2019-04-20T12:03:58.459Z,3.50
2019-04-20T12:05:05.950Z,3.30
2019-04-20T12:05:53.670Z,3.50
2019-04-20T12:06:50.664Z,3.40
2019-04-20T12:07:49.526Z,3.20
2019-04-20T12:08:49.483Z,3.30
2019-04-20T12:09:49.502Z,3.40
2019-04-20T12:10:55.873Z,3.30
2019-04-20T12:12:04.225Z,3.40
2019-04-20T12:12:53.525Z,3.40
2019-04-20T12:13:49.359Z,3.60
2019-04-20T12:14:50.477Z,3.40
2019-04-20T12:15:49.662Z,3.30
2019-04-20T12:16:49.964Z,3.40
2019-04-20T12:17:49.496Z,3.70
2019-04-20T12:18:50.215Z,3.90
2019-04-20T12:19:50.155Z,3.80
2019-04-20T12:20:50.372Z,4.20
2019-04-20T12:21:49.661Z,4.30
2019-04-20T12:22:50.473Z,4.10
2019-04-20T12:23:49.206Z,4.20
2019-04-20T12:24:49.978Z,4.30
2019-04-20T12:25:50.194Z,4.40
2019-04-20T12:26:49.042Z,4.10
2019-04-20T12:27:55.081Z,4.40
2019-04-20T12:28:49.717Z,3.90
2019-04-20T12:29:49.865Z,4.00
2019-04-20T12:30:48.961Z,3.80
2019-04-20T12:31:51.141Z,4.10
2019-04-20T12:32:52.601Z,4.50
2019-04-20T12:33:48.865Z,4.20
2019-04-20T12:34:49.603Z,4.10
2019-04-20T12:35:50.005Z,4.10
2019-04-20T12:36:49.116Z,4.60
2019-04-20T12:37:49.284Z,4.60
2019-04-20T12:38:48.749Z,4.50
2019-04-20T12:39:49.166Z,4.60
2019-04-20T12:40:48.663Z,4.40
2019-04-20T12:41:53.597Z,4.30
2019-04-20T12:42:48.886Z,4.40
2019-04-20T12:43:49.723Z,4.50
2019-04-20T12:44:49.988Z,4.60
2019-04-20T12:45:49.677Z,5.00
2019-04-20T12:46:49.829Z,4.60
2019-04-20T12:47:50.283Z,4.50
2019-04-20T12:48:49.391Z,4.10
2019-04-20T12:49:49.597Z,4.60
2019-04-20T12:50:49.559Z,5.00
2019-04-20T12:51:54.647Z,4.80
2019-04-20T12:52:48.426Z,4.90
2019-04-20T12:53:48.772Z,5.20
2019-04-20T12:54:48.340Z,5.40
2019-04-20T12:55:48.439Z,5.60
2019-04-20T12:56:48.731Z,5.80
2019-04-20T12:57:48.217Z,5.60
2019-04-20T12:58:49.422Z,5.90
2019-04-20T12:59:49.589Z,5.50
2019-04-20T13:00:49.818Z,5.40
2019-04-20T13:01:49.196Z,5.60
2019-04-20T13:02:49.410Z,5.90
2019-04-20T13:03:48.053Z,5.50
2019-04-20T13:04:49.136Z,5.50
2019-04-20T13:05:48.002Z,5.50
2019-04-20T13:06:49.296Z,5.20
2019-04-20T13:07:51.880Z,4.80
2019-04-20T13:08:52.346Z,5.00
2019-04-20T13:09:48.594Z,4.90
2019-04-20T13:10:48.689Z,5.50
2019-04-20T13:11:56.834Z,5.90
2019-04-20T13:12:47.834Z,6.50
2019-04-20T13:13:48.311Z,6.60
2019-04-20T13:14:48.570Z,8.80
2019-04-20T13:15:47.749Z,8.10
2019-04-20T13:16:50.183Z,6.10
2019-04-20T13:17:50.668Z,5.80
2019-04-20T13:18:47.723Z,8.00
2019-04-20T13:19:47.588Z,5.80
2019-04-20T13:20:48.029Z,12.40
2019-04-20T13:21:47.589Z,10.60
2019-04-20T13:22:48.694Z,10.20
2019-04-20T13:23:47.491Z,9.80
2019-04-20T13:24:47.456Z,14.80
2019-04-20T13:25:48.707Z,14.70
2019-04-20T13:26:47.438Z,9.20
2019-04-20T13:27:47.447Z,6.30
2019-04-20T13:28:47.534Z,11.10
2019-04-20T13:29:50.546Z,6.90
2019-04-20T13:30:48.075Z,6.20
2019-04-20T13:31:50.168Z,5.40
2019-04-20T13:32:47.765Z,5.70
2019-04-20T13:33:47.563Z,6.00
2019-04-20T13:34:47.140Z,8.60